Adjud, Romania

4:17 AM EEST on July 23, 2014 (GMT +0300)
Bacau (LRBC) Elev 607 ft | 46.52 °N, 26.91 °E | Change Station

Current weather conditions updated 17 minutes ago

Overcast
Overcast
66 °F
Feels Like 66 °F
N
7
Wind Variable Wind from NW

Today is forecast to be Cooler than yesterday. Afternoon thunderstorms.

Today
High -- | Low -- °F
--% Chance of Precip.
Yesterday
High -- | Low -- °F
Precip. -- in
5:42 AM 8:52 PM
Waning Crescent, 14% visible
Pressure 29.86 in
Visibility 6.2 miles
Clouds Mostly Cloudy 600 ft
Overcast 800 ft
Dew Point 66 °F
Humidity 100%
Rainfall 0.00 in
Snow Depth Not available.
UV 0 out of 12
Pollen Not available.
Air Quality Not available.
Flu Activity Not available.
METAR LRBC 230100Z AUTO 31006KT 9999 BKN006 OVC008 19/19 Q1011

More Conditions Fewer Conditions

Pressure 29.86 in
Visibility 6.2 miles
Clouds Mostly Cloudy 600 ft
Overcast 800 ft
Dew Point 66 °F
Humidity 100%
Rainfall 0.00 in
Snow Depth Not available.
UV 0 out of 12
Pollen Not available.
Air Quality Not available.
Flu Activity Not available.
METAR LRBC 230100Z AUTO 31006KT 9999 BKN006 OVC008 19/19 Q1011

More Conditions Fewer Conditions

10-Day Weather Forecast

Almanac

Astronomy

Jul. 23, 2014 Rise Set
Actual Time 5:42 AM EEST 8:52 PM EEST
Civil Twilight 5:06 AM EEST 9:28 PM EEST
Nautical Twilight 4:20 AM EEST 10:14 PM EEST
Astronomical Twilight 3:22 AM EEST 11:11 PM EEST
Moon 2:48 AM EEST 6:03 PM EEST
Length of Visible Light 16h 21m
Length of Day
15h 09m
Tomorrow will be 2m 9s shorter.
Waning Crescent, 14% of the Moon is Illuminated
Jul 22
Waning Crescent
Jul 26
New
Aug 3
First Quarter
Aug 10
Full
Aug 17
Last Quarter

Yesterday's Extremes

Country Highs Country Lows

Community

WunderPhotos

Upload Photos

1,736,423 photos uploaded!

Nearby

Snow Depth

Not available.

Earthquake Activity

City Distance Mag. Time & Date
No recent earthquake activity has been reported nearby.
Minimum magnitude displayed is 2.5.

Coastal Water Temperatures

Place Temperature
No Stations Reporting

Nearby Weather Stations

There are no personal weather stations in this area.